Airfield :
LOGIN :

Register | Disclaimer

   EN    FR    IT 

 










Legend :    VFR   Marginal VFR   IFR   Intensive IFR   Very Intensive IFR
Visi :
Ceiling :
>= 8 km
>= 3000ft
5 to 8 km
1000 to 3000 ft
1500m to 5 km
500 to 1000 ft
800 to 1500m
200 to 500 ft
< 800m
< 200 ft
Symbols :   Thunderstorms  Fog  Heavy snow  Heavy precipitations  Wind > 20 kt
SIGMETs :     Misc.  Thunderstorms  Icing  Turbulence  Mountain Waves  Volcanic Ashes







- Airport Elevation : 1521 ft
- IATA code : NCY
- Download approach charts


LFLP - Annecy

CURRENT METAR :
  • 211200Z AUTO 29006KT 240V350 CAVOK 29/16 Q1018 TEMPO SCT040TCU

EXPIRED METARs :
  • 211130Z AUTO 27004KT 190V360 9999 FEW056 SCT076 29/15 Q1018 TEMPO SCT040TCU
  • 211100Z AUTO VRB05KT 9999 FEW056 29/16 Q1018 TEMPO SCT040TCU
  • 211030Z AUTO VRB03KT 9999 SCT049 29/17 Q1019 TEMPO SCT040TCU
  • 211000Z AUTO 22004KT 140V310 CAVOK 28/18 Q1019 TEMPO SCT040TCU
  • 210930Z AUTO 23004KT 180V280 9999 FEW054 27/18 Q1019 TEMPO SCT040TCU

TAF TAF LFLP
Valid from the 21 at 09:00 until the 22 at 09:00 UTC


210800Z 2109/2209 VRB02KT CAVOK
BECMG 2109/2112 29007KT SCT040
PROB30
TEMPO 2111/2117 SCT040TCU
BECMG 2117/2119 01007KT NSC
TEMPO 2201/2206 BKN040
No reported NOTAMs for that airfield.



MET'MAP, your aeronautical weather chart ! - Copyright ORBIFLY December 2007 - Disclaimer

ORBIFLY MET'MAP TEAM :

Programming & Development : Alexandra Zaïnal
Concept & Development : Baudouin d'Aumeries
Co-Development & Prog : Marc-Olivier Méhu
Technical & hardware support : Manuel Goepfert

Contact : metmap@orbifly.com




SOURCES & CREDITS :

   NOAA